createdAt,value
2022-10-17T00:00:17.303Z,11.733796
2022-10-17T00:05:17.300Z,11.583333
2022-10-17T00:10:17.387Z,11.034722
2022-10-17T00:15:17.289Z,11.113426
2022-10-17T00:20:17.350Z,11.328704
2022-10-17T00:25:17.465Z,11.101852
2022-10-17T00:30:17.315Z,10.988426
2022-10-17T00:35:17.385Z,10.951389
2022-10-17T00:40:17.454Z,10.456019
2022-10-17T00:45:17.497Z,10.613426
2022-10-17T00:50:17.650Z,10.597222
2022-10-17T00:55:17.421Z,10.717593
2022-10-17T01:00:17.514Z,10.532407
2022-10-17T01:05:17.259Z,10.381944
2022-10-17T01:10:17.396Z,10.340278
2022-10-17T01:15:17.684Z,10.395833
2022-10-17T01:20:17.615Z,10.564815
2022-10-17T01:25:17.272Z,10.437500
2022-10-17T01:30:17.791Z,10.173611
2022-10-17T01:35:17.564Z,10.594907
2022-10-17T01:40:17.418Z,10.918981
2022-10-17T01:45:17.317Z,11.046296
2022-10-17T01:50:17.673Z,11.428241
2022-10-17T01:55:17.532Z,11.335648
2022-10-17T02:00:17.626Z,10.784722
2022-10-17T02:05:17.279Z,10.597222
2022-10-17T02:10:17.363Z,10.409722
2022-10-17T02:15:17.229Z,10.150463
2022-10-17T02:20:17.408Z,10.046296
2022-10-17T02:25:17.237Z,10.055556
2022-10-17T02:30:17.621Z,10.000000
2022-10-17T02:35:17.249Z,9.701389
2022-10-17T02:40:17.394Z,9.662037
2022-10-17T02:45:17.386Z,9.773148
2022-10-17T02:50:17.474Z,9.703704
2022-10-17T02:55:17.274Z,9.601852
2022-10-17T03:00:17.226Z,9.817130
2022-10-17T03:05:17.323Z,10.527778
2022-10-17T03:10:17.369Z,10.789352
2022-10-17T03:15:17.231Z,10.671296
2022-10-17T03:20:17.655Z,10.261574
2022-10-17T03:25:17.476Z,10.018519
2022-10-17T03:30:17.238Z,10.092593
2022-10-17T03:35:17.487Z,9.930556
2022-10-17T03:40:17.223Z,9.842593
2022-10-17T03:45:17.287Z,9.930556
2022-10-17T03:50:17.366Z,9.583333
2022-10-17T03:55:17.206Z,9.583333
2022-10-17T04:00:17.699Z,9.810185
2022-10-17T04:05:17.253Z,9.864444
2022-10-17T04:10:17.305Z,9.920000
2022-10-17T04:15:17.629Z,9.895833
2022-10-17T04:20:17.676Z,9.710648
2022-10-17T04:25:17.212Z,9.617778
2022-10-17T04:30:17.288Z,9.766204
2022-10-17T04:35:17.264Z,9.710648
2022-10-17T04:40:17.219Z,9.761574
2022-10-17T04:45:17.467Z,9.728889
2022-10-17T04:50:17.473Z,9.668981
2022-10-17T04:55:17.217Z,9.638889
2022-10-17T05:00:17.243Z,9.476852
2022-10-17T05:05:17.412Z,9.168981
2022-10-17T05:10:17.373Z,9.157407
2022-10-17T05:15:17.161Z,9.615556
2022-10-17T05:20:17.521Z,9.275463
2022-10-17T05:25:17.628Z,9.651111
2022-10-17T05:30:17.533Z,9.791667
2022-10-17T05:35:17.306Z,9.844907
2022-10-17T05:40:17.234Z,9.502315
2022-10-17T05:45:17.174Z,9.372685
2022-10-17T05:50:17.274Z,9.717593
2022-10-17T05:55:17.319Z,9.784722
2022-10-17T06:00:17.166Z,9.289352
2022-10-17T06:05:17.221Z,9.388889
2022-10-17T06:10:17.200Z,9.636574
2022-10-17T06:15:17.196Z,9.803241
2022-10-17T06:20:17.485Z,10.025463
2022-10-17T06:25:17.278Z,10.108796
2022-10-17T06:30:17.426Z,10.081019
2022-10-17T06:35:17.167Z,10.337963
2022-10-17T06:40:17.512Z,10.601852
2022-10-17T06:45:17.161Z,10.862222
2022-10-17T06:50:17.356Z,11.136574
2022-10-17T06:55:21.324Z,11.372685
2022-10-17T07:00:17.119Z,11.625000
2022-10-17T07:05:17.270Z,12.018519
2022-10-17T07:10:17.271Z,12.268519
2022-10-17T07:15:17.157Z,12.682222
2022-10-17T07:20:17.181Z,13.027778
2022-10-17T07:25:17.446Z,13.178241
2022-10-17T07:30:17.476Z,13.444444
2022-10-17T07:35:17.568Z,13.918981
2022-10-17T07:40:17.368Z,14.212963
2022-10-17T07:45:17.132Z,14.710648
2022-10-17T07:50:17.245Z,15.006944
2022-10-17T07:55:17.132Z,15.312500
2022-10-17T08:00:17.591Z,15.541667
2022-10-17T08:05:17.160Z,15.960000
2022-10-17T08:10:17.342Z,16.398148
2022-10-17T08:15:17.490Z,16.666667
2022-10-17T08:20:17.138Z,17.513333
2022-10-17T08:25:17.432Z,18.481481
2022-10-17T08:30:17.621Z,19.263889
2022-10-17T08:35:17.188Z,19.921296
2022-10-17T08:40:17.608Z,20.067130
2022-10-17T08:45:17.431Z,20.217593
2022-10-17T08:50:17.215Z,20.432870
2022-10-17T08:55:17.163Z,20.530093
2022-10-17T09:00:17.076Z,20.928889
2022-10-17T09:05:17.600Z,21.157407
2022-10-17T09:10:17.402Z,21.381944
2022-10-17T09:15:17.465Z,21.703704
2022-10-17T09:20:17.179Z,22.006944
2022-10-17T09:25:17.461Z,22.254630
2022-10-17T09:30:39.988Z,22.469907
2022-10-17T09:35:17.412Z,22.743056
2022-10-17T09:40:17.466Z,22.905093
2022-10-17T09:45:17.219Z,22.868056
2022-10-17T09:50:17.300Z,23.472222
2022-10-17T09:55:17.403Z,23.451111
2022-10-17T10:00:17.118Z,23.449074
2022-10-17T10:05:17.253Z,23.613426
2022-10-17T10:10:17.299Z,23.807870
2022-10-17T10:15:17.110Z,23.993056
2022-10-17T10:20:17.151Z,24.134259
2022-10-17T10:25:17.124Z,24.335648
2022-10-17T10:30:17.378Z,24.277778
2022-10-17T10:35:17.124Z,24.511574
2022-10-17T10:40:17.112Z,24.604444
2022-10-17T10:45:29.196Z,24.569444
2022-10-17T10:50:17.373Z,24.213333
2022-10-17T10:55:17.106Z,24.458333
2022-10-17T11:00:17.133Z,24.750000
2022-10-17T11:05:17.182Z,24.805556
2022-10-17T11:10:17.183Z,24.858796
2022-10-17T11:15:17.090Z,25.087963
2022-10-17T11:20:17.141Z,25.178241
2022-10-17T11:25:17.111Z,25.349537
2022-10-17T11:30:17.252Z,25.622685
2022-10-17T11:35:17.053Z,25.759259
2022-10-17T11:40:19.260Z,25.726852
2022-10-17T11:45:17.177Z,25.997685
2022-10-17T11:55:17.080Z,26.037037
2022-10-17T12:00:17.205Z,26.277778
2022-10-17T12:05:17.417Z,26.370370
2022-10-17T12:10:17.477Z,26.471111
2022-10-17T12:15:17.067Z,26.710648
2022-10-17T12:20:17.066Z,26.995370
2022-10-17T12:25:17.102Z,26.909722
2022-10-17T12:30:17.135Z,26.993056
2022-10-17T12:35:17.084Z,26.979167
2022-10-17T12:40:17.264Z,27.025463
2022-10-17T12:45:18.045Z,27.108889
2022-10-17T12:50:17.156Z,26.881944
2022-10-17T12:55:17.089Z,27.092593
2022-10-17T13:00:17.106Z,27.229167
2022-10-17T13:05:17.048Z,27.127315
2022-10-17T13:10:17.226Z,26.995556
2022-10-17T13:15:16.985Z,27.085648
2022-10-17T13:20:27.550Z,27.074074
2022-10-17T13:25:17.053Z,26.886574
2022-10-17T13:30:17.224Z,26.819444
2022-10-17T13:35:17.093Z,26.777778
2022-10-17T13:40:40.789Z,26.775463
2022-10-17T13:45:17.683Z,26.488426
2022-10-17T13:50:39.500Z,26.043981
2022-10-17T13:55:17.913Z,25.562500
2022-10-17T14:00:17.246Z,24.931111
2022-10-17T14:05:18.951Z,24.506944
2022-10-17T14:10:17.582Z,24.564815
2022-10-17T14:15:17.502Z,24.430556
2022-10-17T14:21:36.814Z,24.245370
2022-10-17T14:25:17.033Z,23.969907
2022-10-17T14:30:21.748Z,23.888889
2022-10-17T14:35:37.377Z,23.490741
2022-10-17T14:40:17.040Z,23.444444
2022-10-17T14:45:21.263Z,23.143519
2022-10-17T14:50:17.128Z,22.935185
2022-10-17T14:55:17.030Z,22.724537
2022-10-17T15:00:17.042Z,22.821759
2022-10-17T15:05:17.031Z,22.923611
2022-10-17T15:10:17.555Z,22.780093
2022-10-17T15:15:17.089Z,22.815556
2022-10-17T15:20:17.038Z,22.682870
2022-10-17T15:25:17.033Z,22.458333
2022-10-17T15:30:20.738Z,22.159722
2022-10-17T15:35:17.018Z,21.983796
2022-10-17T15:40:16.941Z,21.571759
2022-10-17T15:45:17.316Z,21.150463
2022-10-17T15:50:17.023Z,20.906667
2022-10-17T15:55:17.328Z,20.467593
2022-10-17T16:00:17.009Z,20.076389
2022-10-17T16:05:17.283Z,19.687500
2022-10-17T16:10:17.264Z,19.381944
2022-10-17T16:15:17.011Z,19.048611
2022-10-17T16:20:16.973Z,18.817130
2022-10-17T16:25:17.211Z,18.365741
2022-10-17T16:30:17.096Z,18.000000
2022-10-17T16:35:16.929Z,18.000000
2022-10-17T16:40:17.479Z,18.212963
2022-10-17T16:45:16.998Z,18.694444
2022-10-17T16:50:17.002Z,18.736111
2022-10-17T16:55:17.260Z,18.152778
2022-10-17T17:00:17.000Z,17.981481
2022-10-17T17:05:16.977Z,18.543981
2022-10-17T17:10:17.294Z,18.460648
2022-10-17T17:15:16.956Z,18.074074
2022-10-17T17:20:17.049Z,17.513889
2022-10-17T17:25:17.010Z,17.282407
2022-10-17T17:30:17.246Z,16.905093
2022-10-17T17:35:17.004Z,16.671296
2022-10-17T17:40:16.961Z,16.314815
2022-10-17T17:45:17.207Z,16.333333
2022-10-17T17:50:17.362Z,16.407407
2022-10-17T17:55:17.307Z,15.979167
2022-10-17T18:00:17.918Z,15.680556
2022-10-17T18:05:16.951Z,15.465278
2022-10-17T18:10:17.324Z,15.553333
2022-10-17T18:15:17.175Z,15.432870
2022-10-17T18:20:17.133Z,15.481481
2022-10-17T18:25:17.203Z,15.456019
2022-10-17T18:30:17.961Z,16.013333
2022-10-17T18:35:17.271Z,16.708333
2022-10-17T18:40:19.882Z,16.775641
2022-10-17T18:45:19.930Z,16.842593
2022-10-17T18:50:19.496Z,16.930556
2022-10-17T18:55:19.707Z,16.918981
2022-10-17T19:00:19.489Z,17.020833
2022-10-17T19:05:19.748Z,16.986111
2022-10-17T19:10:19.592Z,16.893519
2022-10-17T19:15:22.452Z,16.858796
2022-10-17T19:20:19.458Z,16.740741
2022-10-17T19:25:19.459Z,16.817130
2022-10-17T19:30:19.853Z,16.831019
2022-10-17T19:35:19.478Z,16.879630
2022-10-17T19:40:19.664Z,16.831019
2022-10-17T19:45:19.575Z,16.775463
2022-10-17T19:50:19.568Z,16.731481
2022-10-17T19:55:19.508Z,16.652778
2022-10-17T20:00:19.437Z,16.562500
2022-10-17T20:05:21.605Z,16.465278
2022-10-17T20:10:19.686Z,16.314815
2022-10-17T20:15:19.429Z,16.159722
2022-10-17T20:20:20.177Z,16.002315
2022-10-17T20:25:19.591Z,15.905093
2022-10-17T20:30:19.938Z,15.974537
2022-10-17T20:35:19.805Z,15.525463
2022-10-17T20:40:35.872Z,15.365741
2022-10-17T20:45:32.019Z,15.023148
2022-10-17T20:50:19.429Z,15.048611
2022-10-17T20:55:19.541Z,14.914352
2022-10-17T21:00:19.484Z,15.023148
2022-10-17T21:05:19.356Z,14.803241
2022-10-17T21:10:35.634Z,14.418981
2022-10-17T21:15:19.639Z,14.625000
2022-10-17T21:20:19.427Z,14.988426
2022-10-17T21:25:19.706Z,15.162037
2022-10-17T21:30:19.608Z,15.342593
2022-10-17T21:35:19.476Z,15.296296
2022-10-17T21:40:17.105Z,15.398148
2022-10-17T21:45:25.309Z,15.129630
2022-10-17T21:50:16.869Z,15.087963
2022-10-17T21:55:16.840Z,14.981481
2022-10-17T22:00:16.828Z,14.515556
2022-10-17T22:05:16.937Z,14.314815
2022-10-17T22:10:17.087Z,14.247685
2022-10-17T22:15:16.852Z,14.206019
2022-10-17T22:20:17.216Z,14.430556
2022-10-17T22:25:17.357Z,14.643519
2022-10-17T22:30:17.321Z,14.761574
2022-10-17T22:35:16.850Z,14.423611
2022-10-17T22:40:16.972Z,14.155093
2022-10-17T22:45:16.909Z,14.020833
2022-10-17T22:50:17.010Z,13.895833
2022-10-17T22:55:17.201Z,13.944444
2022-10-17T23:00:16.945Z,13.696759
2022-10-17T23:05:16.949Z,13.717593
2022-10-17T23:10:16.895Z,13.675556
2022-10-17T23:15:16.870Z,13.322222
2022-10-17T23:20:16.897Z,13.041667
2022-10-17T23:25:16.852Z,13.312500
2022-10-17T23:30:16.955Z,13.185185
2022-10-17T23:35:16.847Z,12.946667
2022-10-17T23:40:16.860Z,13.113426
2022-10-17T23:45:16.865Z,13.523148
2022-10-17T23:50:16.908Z,13.358796
2022-10-17T23:55:17.019Z,12.960648
